Time;durP1;ratioP1;P1;durP2;ratioP2;P2;SDS_P1;SDS_P2;PMS_P1;PMS_P2;Temp;Humidity;BMP_temperature;BMP_pressure;BME280_temperature;BME280_humidity;BME280_pressure;Samples;Min_cycle;Max_cycle;Signal;HPM_P1;HPM_P2
2023/09/07 00:01:55;;;;;;;14.63;7.50;;;22.80;99.90;;;;;;5054682;28;20249;-73
2023/09/07 00:04:22;;;;;;;18.20;7.85;;;22.90;99.90;;;;;;5054227;28;20659;-74
2023/09/07 00:06:49;;;;;;;18.88;7.40;;;22.90;99.90;;;;;;5054692;28;20256;-73
2023/09/07 00:09:16;;;;;;;13.30;7.35;;;22.90;99.90;;;;;;5054508;28;20464;-73
2023/09/07 00:11:41;;;;;;;15.85;7.28;;;22.90;99.90;;;;;;5054593;28;20165;-73
2023/09/07 00:14:07;;;;;;;15.35;7.13;;;23.00;99.90;;;;;;5054326;28;20234;-73
2023/09/07 00:16:38;;;;;;;20.85;7.70;;;23.00;99.90;;;;;;5054113;28;20207;-73
2023/09/07 00:19:04;;;;;;;14.60;6.93;;;;;;;;;;5054074;28;20176;-73
2023/09/07 00:21:30;;;;;;;14.20;7.53;;;;;;;;;;5053039;28;20173;-73
2023/09/07 00:23:55;;;;;;;16.27;6.55;;;23.00;99.90;;;;;;5054255;28;20338;-71
2023/09/07 00:26:21;;;;;;;18.30;7.15;;;23.00;99.90;;;;;;5053886;28;20606;-72
2023/09/07 00:28:47;;;;;;;17.27;6.90;;;23.00;99.90;;;;;;5054128;28;20180;-72
2023/09/07 00:31:13;;;;;;;12.40;7.47;;;23.10;99.90;;;;;;5054068;28;20173;-72
2023/09/07 00:33:38;;;;;;;15.15;7.22;;;23.10;99.90;;;;;;5054079;28;20534;-72
2023/09/07 00:36:04;;;;;;;12.70;7.65;;;23.10;99.90;;;;;;5066577;28;20208;-73
2023/09/07 00:38:30;;;;;;;14.25;7.47;;;22.90;99.90;;;;;;5059987;28;20181;-73
2023/09/07 00:40:56;;;;;;;19.25;7.90;;;23.00;99.90;;;;;;5054801;28;20165;-74
2023/09/07 00:43:21;;;;;;;14.95;7.40;;;23.00;99.90;;;;;;5052033;28;20765;-74
2023/09/07 00:45:47;;;;;;;15.75;6.68;;;23.00;99.90;;;;;;5061881;28;20181;-74
2023/09/07 00:48:15;;;;;;;14.18;7.07;;;23.00;99.90;;;;;;5071745;28;20536;-73
2023/09/07 00:50:42;;;;;;;16.38;7.03;;;23.00;99.90;;;;;;5064666;28;20189;-73
2023/09/07 00:53:08;;;;;;;21.92;6.95;;;23.00;99.90;;;;;;5052384;28;20177;-72
2023/09/07 00:55:35;;;;;;;11.50;7.00;;;23.00;99.90;;;;;;5052553;28;20276;-72
2023/09/07 00:58:03;;;;;;;13.23;7.07;;;22.80;99.90;;;;;;5053871;28;20184;-72
2023/09/07 01:00:29;;;;;;;15.32;6.70;;;22.80;99.90;;;;;;5052478;28;20230;-72
2023/09/07 01:02:55;;;;;;;12.32;7.22;;;22.80;99.90;;;;;;5053552;28;20256;-72
2023/09/07 01:05:34;;;;;;;16.63;7.35;;;22.80;99.90;;;;;;5053682;28;20487;-72
2023/09/07 01:08:09;;;;;;;13.82;6.65;;;22.80;99.90;;;;;;5053249;28;20173;-75
2023/09/07 01:10:35;;;;;;;17.48;6.95;;;22.80;99.90;;;;;;5053260;28;20205;-73
2023/09/07 01:13:00;;;;;;;17.02;6.90;;;22.80;99.90;;;;;;5052877;28;20659;-75
2023/09/07 01:15:26;;;;;;;13.85;6.35;;;22.70;99.90;;;;;;5053380;28;20188;-74
2023/09/07 01:17:52;;;;;;;19.83;7.03;;;22.70;99.90;;;;;;5053069;28;20200;-74
2023/09/07 01:20:19;;;;;;;13.23;7.10;;;22.60;99.90;;;;;;5053244;28;20916;-75
2023/09/07 01:22:45;;;;;;;15.15;6.70;;;22.60;99.90;;;;;;5053177;28;20169;-74
2023/09/07 01:25:11;;;;;;;17.27;7.60;;;22.60;99.90;;;;;;5053016;28;20212;-73
2023/09/07 01:27:37;;;;;;;13.10;6.75;;;22.60;99.90;;;;;;5053227;28;20165;-73
2023/09/07 01:30:03;;;;;;;15.18;6.88;;;22.60;99.90;;;;;;5052899;28;20631;-73
2023/09/07 01:32:29;;;;;;;15.43;6.80;;;;;;;;;;5053216;28;20174;-74
2023/09/07 01:34:57;;;;;;;19.30;7.72;;;22.60;99.90;;;;;;5052975;28;20179;-74
2023/09/07 01:37:23;;;;;;;9.43;6.43;;;22.60;99.90;;;;;;5051603;28;20185;-73
2023/09/07 01:39:49;;;;;;;13.18;6.88;;;22.60;99.90;;;;;;5052805;28;20181;-73
2023/09/07 01:42:15;;;;;;;18.77;6.60;;;22.50;99.90;;;;;;5052743;28;20174;-73
2023/09/07 01:44:41;;;;;;;17.90;7.22;;;22.50;99.90;;;;;;5052318;28;20687;-74
2023/09/07 01:47:06;;;;;;;14.70;6.80;;;22.50;99.90;;;;;;5052510;28;20211;-73
2023/09/07 01:49:32;;;;;;;12.00;7.20;;;22.50;99.90;;;;;;5052768;28;20172;-74
2023/09/07 01:51:58;;;;;;;14.30;7.00;;;22.50;99.90;;;;;;5051229;28;20893;-74
2023/09/07 01:54:23;;;;;;;18.33;7.60;;;22.50;99.90;;;;;;5053563;28;20196;-74
2023/09/07 01:56:49;;;;;;;10.27;6.30;;;22.50;99.90;;;;;;5053376;28;20268;-74
2023/09/07 01:59:14;;;;;;;16.92;6.45;;;22.40;99.90;;;;;;5065912;28;21601;-74
2023/09/07 02:01:40;;;;;;;12.73;6.10;;;22.50;99.90;;;;;;5060474;28;20177;-74
2023/09/07 02:04:06;;;;;;;15.95;6.57;;;22.20;99.90;;;;;;5072358;28;20212;-75
2023/09/07 02:06:32;;;;;;;13.82;6.90;;;22.40;99.90;;;;;;5070885;28;20180;-74
2023/09/07 02:08:57;;;;;;;11.40;6.57;;;22.30;99.90;;;;;;5064036;28;20269;-74
2023/09/07 02:11:23;;;;;;;14.07;6.53;;;22.40;99.90;;;;;;5068925;28;20184;-75
2023/09/07 02:13:49;;;;;;;11.88;5.75;;;22.30;99.90;;;;;;5055818;28;20625;-75
2023/09/07 02:16:15;;;;;;;22.45;6.88;;;;;;;;;;5052024;28;20674;-75
2023/09/07 02:18:45;;;;;;;12.90;6.68;;;22.30;99.90;;;;;;5052024;28;20215;-75
2023/09/07 02:21:11;;;;;;;12.30;5.80;;;22.30;99.90;;;;;;5051913;28;20260;-75
2023/09/07 02:23:37;;;;;;;15.85;6.82;;;22.30;99.90;;;;;;5050954;28;20209;-75
2023/09/07 02:26:03;;;;;;;17.65;6.47;;;22.30;99.90;;;;;;5052018;28;20196;-75
2023/09/07 02:28:29;;;;;;;17.92;6.70;;;22.40;99.90;;;;;;5051813;28;20567;-74
2023/09/07 02:31:02;;;;;;;14.50;6.38;;;22.40;99.90;;;;;;5050488;28;20173;-74
2023/09/07 02:33:28;;;;;;;14.73;6.30;;;22.40;99.90;;;;;;5051790;28;20169;-73
2023/09/07 02:35:53;;;;;;;15.90;6.65;;;22.50;99.90;;;;;;5051971;28;20178;-73
2023/09/07 02:38:19;;;;;;;17.23;7.03;;;22.50;99.90;;;;;;5051846;28;20659;-73
2023/09/07 02:40:45;;;;;;;14.60;6.68;;;22.50;99.90;;;;;;5051684;28;20651;-73
2023/09/07 02:43:11;;;;;;;14.80;6.40;;;22.50;99.90;;;;;;5051361;28;20281;-73
2023/09/07 02:45:37;;;;;;;16.20;6.93;;;22.50;99.90;;;;;;5050251;28;20238;-73
2023/09/07 02:48:03;;;;;;;15.45;6.63;;;22.50;99.90;;;;;;5050064;28;20169;-73
2023/09/07 02:50:32;;;;;;;15.93;6.30;;;22.70;99.90;;;;;;5051621;28;20173;-74
2023/09/07 02:52:58;;;;;;;13.05;6.40;;;22.60;99.90;;;;;;5051368;28;20647;-74
2023/09/07 02:55:24;;;;;;;12.82;5.93;;;22.60;99.90;;;;;;5050218;28;20238;-74
2023/09/07 02:57:49;;;;;;;15.95;6.40;;;22.60;99.90;;;;;;5051370;28;20644;-74
2023/09/07 03:00:17;;;;;;;13.40;5.47;;;22.50;99.90;;;;;;5051379;28;20173;-74
2023/09/07 03:02:45;;;;;;;14.27;6.78;;;22.50;99.90;;;;;;5051182;28;20196;-74
2023/09/07 03:05:11;;;;;;;17.55;6.82;;;22.40;99.90;;;;;;5051197;28;20291;-73
2023/09/07 03:07:39;;;;;;;16.88;6.93;;;22.40;99.90;;;;;;5051101;28;20305;-74
2023/09/07 03:10:05;;;;;;;18.27;6.65;;;22.40;99.90;;;;;;5050834;28;20169;-73
2023/09/07 03:12:30;;;;;;;15.02;6.75;;;22.40;99.90;;;;;;5051197;28;20180;-74
2023/09/07 03:14:56;;;;;;;16.98;6.50;;;;;;;;;;5051136;28;20268;-74
2023/09/07 03:17:22;;;;;;;14.95;6.57;;;22.50;99.90;;;;;;5050849;28;20174;-74
2023/09/07 03:19:48;;;;;;;15.20;6.65;;;22.40;99.90;;;;;;5051266;28;20179;-73
2023/09/07 03:22:14;;;;;;;13.48;6.47;;;;;;;;;;5051177;28;20585;-73
2023/09/07 03:24:40;;;;;;;15.82;7.03;;;22.30;99.90;;;;;;5050903;28;20197;-73
2023/09/07 03:27:06;;;;;;;14.40;6.28;;;22.30;99.90;;;;;;5054838;28;20184;-73
2023/09/07 03:29:35;;;;;;;13.02;6.13;;;;;;;;;;5070822;28;20263;-73
2023/09/07 03:32:01;;;;;;;11.73;6.07;;;;;;;;;;5069274;28;20173;-73
2023/09/07 03:34:27;;;;;;;14.20;6.85;;;22.30;99.90;;;;;;5067420;28;20563;-74
2023/09/07 03:36:53;;;;;;;15.00;6.10;;;22.30;99.90;;;;;;5055068;28;20177;-74
2023/09/07 03:39:18;;;;;;;13.73;6.88;;;22.20;99.90;;;;;;5054359;28;20173;-74
2023/09/07 03:41:44;;;;;;;9.75;5.80;;;;;;;;;;5050732;28;20169;-73
2023/09/07 03:44:10;;;;;;;11.27;6.22;;;22.10;99.90;;;;;;5049249;28;20345;-73
2023/09/07 03:46:37;;;;;;;22.67;6.80;;;22.20;99.90;;;;;;5049552;28;20223;-72
2023/09/07 03:49:03;;;;;;;12.55;6.07;;;22.20;99.90;;;;;;5054420;28;20180;-72
2023/09/07 03:51:29;;;;;;;10.70;6.57;;;22.30;99.90;;;;;;5070572;28;20620;-71
2023/09/07 03:53:54;;;;;;;11.40;6.22;;;22.20;99.90;;;;;;5054569;28;20272;-71
2023/09/07 03:56:20;;;;;;;13.30;7.15;;;22.20;99.90;;;;;;5051531;28;20258;-71
2023/09/07 03:58:48;;;;;;;12.05;6.57;;;22.30;99.90;;;;;;5049390;28;20600;-71
2023/09/07 04:01:14;;;;;;;8.70;5.78;;;22.30;99.90;;;;;;5055347;28;20179;-71
2023/09/07 04:03:40;;;;;;;12.63;6.85;;;22.40;99.90;;;;;;5050637;28;20208;-73
2023/09/07 04:06:06;;;;;;;12.30;6.47;;;22.30;99.90;;;;;;5041168;28;20201;-73
2023/09/07 04:08:32;;;;;;;17.27;6.32;;;22.30;99.90;;;;;;5047946;28;20252;-71
2023/09/07 04:10:58;;;;;;;11.13;6.60;;;22.30;99.90;;;;;;5069980;28;20222;-71
2023/09/07 04:13:23;;;;;;;13.18;6.80;;;22.20;99.90;;;;;;5070262;28;20177;-71
2023/09/07 04:15:49;;;;;;;14.48;6.95;;;22.30;99.90;;;;;;5070066;28;20581;-71
2023/09/07 04:18:16;;;;;;;9.98;6.60;;;;;;;;;;5069830;28;20673;-71
2023/09/07 04:20:42;;;;;;;12.25;6.80;;;;;;;;;;5056982;28;20262;-71
2023/09/07 04:23:08;;;;;;;12.68;6.85;;;22.30;99.90;;;;;;5062306;28;20188;-71
2023/09/07 04:25:34;;;;;;;13.05;7.18;;;22.20;99.90;;;;;;5050395;28;20223;-72
2023/09/07 04:28:00;;;;;;;14.10;6.60;;;22.20;99.90;;;;;;5050375;28;20168;-71
2023/09/07 04:30:25;;;;;;;10.27;6.32;;;22.20;99.90;;;;;;5048966;28;20177;-72
2023/09/07 04:32:51;;;;;;;12.52;6.38;;;22.20;99.90;;;;;;5050359;28;20651;-72
2023/09/07 04:35:17;;;;;;;10.23;6.57;;;22.20;99.90;;;;;;5050370;28;20181;-72
2023/09/07 04:37:43;;;;;;;10.18;6.70;;;22.20;99.90;;;;;;5050441;28;20212;-72
2023/09/07 04:40:10;;;;;;;14.30;6.55;;;22.30;99.90;;;;;;5050235;28;20176;-72
2023/09/07 04:42:35;;;;;;;12.57;6.35;;;22.20;99.90;;;;;;5049940;28;20166;-72
2023/09/07 04:45:01;;;;;;;13.02;7.00;;;22.20;99.90;;;;;;5050279;28;20205;-71
2023/09/07 04:47:27;;;;;;;9.15;6.13;;;22.10;99.90;;;;;;5052187;28;20252;-72
2023/09/07 04:49:53;;;;;;;9.35;6.28;;;;;;;;;;5053837;28;20256;-71
2023/09/07 04:52:19;;;;;;;8.63;7.05;;;;;;;;;;5054158;28;20168;-71
2023/09/07 04:54:45;;;;;;;12.50;7.00;;;21.40;99.90;;;;;;5052516;28;20173;-72
2023/09/07 04:57:12;;;;;;;10.82;6.80;;;22.00;99.90;;;;;;5053708;28;20668;-74
2023/09/07 04:59:38;;;;;;;16.23;6.82;;;;;;;;;;5054044;28;20181;-71
2023/09/07 05:02:04;;;;;;;10.23;6.40;;;22.20;99.90;;;;;;5053599;28;20239;-71
2023/09/07 05:04:30;;;;;;;15.35;7.25;;;22.00;99.90;;;;;;5053347;28;20724;-72
2023/09/07 05:06:57;;;;;;;12.93;6.82;;;21.90;99.90;;;;;;5053592;28;20177;-72
2023/09/07 05:09:25;;;;;;;13.57;7.18;;;;;;;;;;5053514;28;20173;-73
2023/09/07 05:11:50;;;;;;;13.18;7.57;;;22.00;99.90;;;;;;5053523;28;20161;-73
2023/09/07 05:14:16;;;;;;;9.88;6.90;;;21.90;99.90;;;;;;5053417;28;20309;-72
2023/09/07 05:16:44;;;;;;;15.15;6.82;;;21.80;99.90;;;;;;5049905;28;20184;-75
2023/09/07 05:19:10;;;;;;;14.55;6.80;;;22.10;99.90;;;;;;5053270;28;20383;-72
2023/09/07 05:21:35;;;;;;;15.75;6.75;;;21.80;99.90;;;;;;5053421;28;20161;-72
2023/09/07 05:24:01;;;;;;;15.65;6.65;;;21.90;99.90;;;;;;5053298;28;20212;-72
2023/09/07 05:26:28;;;;;;;11.50;6.38;;;22.00;99.90;;;;;;5052974;28;20728;-72
2023/09/07 05:28:53;;;;;;;12.00;6.57;;;21.90;99.90;;;;;;5056902;28;20710;-73
2023/09/07 05:31:19;;;;;;;10.88;6.50;;;22.00;99.90;;;;;;5053129;28;20252;-73
2023/09/07 05:33:45;;;;;;;10.38;6.70;;;;;;;;;;5052979;28;20232;-73
2023/09/07 05:36:10;;;;;;;10.80;7.15;;;22.00;99.90;;;;;;5053076;28;20173;-73
2023/09/07 05:38:37;;;;;;;12.90;6.65;;;21.90;99.90;;;;;;5053133;28;20177;-73
2023/09/07 05:41:03;;;;;;;15.75;7.78;;;22.00;99.90;;;;;;5052946;28;20176;-73
2023/09/07 05:43:29;;;;;;;14.63;8.05;;;22.00;99.90;;;;;;5052811;28;20228;-73
2023/09/07 05:45:54;;;;;;;13.07;7.45;;;22.10;99.90;;;;;;5052717;28;20165;-73
2023/09/07 05:48:20;;;;;;;12.63;8.02;;;22.10;99.90;;;;;;5052788;28;20181;-73
2023/09/07 05:50:46;;;;;;;15.40;9.88;;;22.10;99.90;;;;;;5052678;28;20180;-73
2023/09/07 05:53:12;;;;;;;14.63;9.07;;;;;;;;;;5052735;28;20610;-73
2023/09/07 05:55:38;;;;;;;14.48;9.05;;;22.20;99.90;;;;;;5039406;28;20260;-73
2023/09/07 05:58:08;;;;;;;20.13;9.10;;;22.20;99.90;;;;;;5051663;28;20273;-72
2023/09/07 06:00:39;;;;;;;17.52;8.98;;;22.20;99.90;;;;;;5045838;28;20236;-73
2023/09/07 06:03:05;;;;;;;15.02;10.93;;;22.20;99.90;;;;;;5032512;28;20177;-74
2023/09/07 06:05:31;;;;;;;15.00;9.25;;;22.10;99.90;;;;;;5034914;28;20201;-73
2023/09/07 06:07:57;;;;;;;14.02;10.07;;;22.30;99.90;;;;;;5052167;28;20226;-73
2023/09/07 06:10:23;;;;;;;15.57;10.48;;;22.30;99.90;;;;;;5063775;28;20176;-72
2023/09/07 06:12:49;;;;;;;16.42;9.70;;;;;;;;;;5045054;28;20170;-73
2023/09/07 06:15:15;;;;;;;12.90;9.30;;;22.30;99.90;;;;;;5032252;28;20174;-72
2023/09/07 06:17:40;;;;;;;16.27;10.00;;;22.60;99.90;;;;;;5032061;28;20173;-72
2023/09/07 06:20:06;;;;;;;17.60;10.20;;;22.60;99.90;;;;;;5032249;28;20244;-72
2023/09/07 06:22:32;;;;;;;17.00;9.73;;;;;;;;;;5062672;28;20173;-72
2023/09/07 06:24:58;;;;;;;19.23;10.70;;;22.40;99.90;;;;;;5051663;28;20300;-72
2023/09/07 06:27:24;;;;;;;15.73;10.18;;;22.60;99.90;;;;;;5056919;28;20632;-73
2023/09/07 06:29:50;;;;;;;15.75;9.65;;;22.10;99.90;;;;;;5065009;28;20218;-73
2023/09/07 06:32:16;;;;;;;14.90;9.90;;;22.60;99.90;;;;;;5051758;28;20311;-73
2023/09/07 06:34:42;;;;;;;16.88;10.35;;;24.20;99.90;;;;;;5055613;28;20263;-73
2023/09/07 06:37:08;;;;;;;14.00;10.20;;;22.60;99.90;;;;;;5051912;28;20249;-73
2023/09/07 06:39:33;;;;;;;17.67;10.13;;;22.60;99.90;;;;;;5056134;28;20177;-73
2023/09/07 06:41:59;;;;;;;15.02;10.10;;;22.70;99.90;;;;;;5051717;28;20169;-73
2023/09/07 06:44:25;;;;;;;15.10;10.70;;;22.80;99.90;;;;;;5051262;28;20311;-72
2023/09/07 06:46:50;;;;;;;12.80;10.35;;;22.80;99.90;;;;;;5051367;28;20543;-73
2023/09/07 06:49:16;;;;;;;13.38;10.18;;;22.80;99.90;;;;;;5052371;28;20173;-72
2023/09/07 06:51:41;;;;;;;14.88;10.48;;;23.00;99.90;;;;;;5059320;28;20224;-73
2023/09/07 06:54:07;;;;;;;16.65;10.68;;;22.90;99.90;;;;;;5060197;28;20635;-74
2023/09/07 06:56:34;;;;;;;13.68;9.98;;;23.00;99.90;;;;;;5051405;28;20169;-74
2023/09/07 06:59:00;;;;;;;14.85;10.20;;;22.90;99.90;;;;;;5051245;28;20214;-75
2023/09/07 07:01:26;;;;;;;16.65;10.73;;;;;;;;;;5051152;28;20177;-75
2023/09/07 07:03:52;;;;;;;15.82;11.00;;;22.90;99.90;;;;;;5051149;28;20216;-76
2023/09/07 07:06:19;;;;;;;17.40;10.25;;;23.00;99.90;;;;;;5051128;28;20616;-75
2023/09/07 07:08:44;;;;;;;13.52;9.93;;;23.00;99.90;;;;;;5050607;28;20239;-75
2023/09/07 07:11:10;;;;;;;15.07;10.68;;;23.30;99.90;;;;;;5050390;28;20185;-75
2023/09/07 07:13:36;;;;;;;19.33;10.32;;;;;;;;;;5050891;28;20173;-74
2023/09/07 07:16:04;;;;;;;16.88;11.10;;;23.20;99.90;;;;;;5053905;28;20255;-74
2023/09/07 07:18:30;;;;;;;16.85;10.75;;;23.20;99.90;;;;;;5065877;28;20169;-74
2023/09/07 07:20:55;;;;;;;14.68;10.95;;;23.10;99.90;;;;;;5051551;28;20180;-75
2023/09/07 07:23:21;;;;;;;19.25;11.20;;;23.30;99.90;;;;;;5052840;28;20571;-75
2023/09/07 07:25:47;;;;;;;19.80;11.73;;;23.30;99.90;;;;;;5050345;28;20636;-74
2023/09/07 07:28:12;;;;;;;16.10;11.95;;;23.30;99.90;;;;;;5049510;28;20176;-74
2023/09/07 07:30:42;;;;;;;19.42;11.40;;;23.40;99.90;;;;;;5050849;28;20181;-74
2023/09/07 07:33:09;;;;;;;19.67;11.70;;;23.50;99.90;;;;;;5052478;28;20174;-73
2023/09/07 07:35:35;;;;;;;19.63;12.52;;;23.50;99.90;;;;;;5050640;28;20200;-74
2023/09/07 07:38:01;;;;;;;21.77;11.20;;;23.50;99.90;;;;;;5053938;28;20182;-74
2023/09/07 07:40:27;;;;;;;15.63;11.13;;;;;;;;;;5050768;28;20176;-73
2023/09/07 07:42:53;;;;;;;17.27;11.43;;;23.60;99.90;;;;;;5050651;28;20217;-74
2023/09/07 07:45:20;;;;;;;21.45;12.98;;;23.70;99.90;;;;;;5054845;28;20295;-74
2023/09/07 07:47:46;;;;;;;19.20;13.00;;;23.60;99.90;;;;;;5068657;28;20169;-74
2023/09/07 07:50:12;;;;;;;24.40;12.70;;;;;;;;;;5063662;28;20169;-74
2023/09/07 07:52:38;;;;;;;18.55;11.57;;;23.70;99.90;;;;;;5057181;28;20165;-74
2023/09/07 07:55:04;;;;;;;17.08;12.73;;;23.60;99.90;;;;;;5050621;28;20595;-74
2023/09/07 07:57:31;;;;;;;21.55;13.23;;;23.60;99.90;;;;;;5050295;28;20223;-74
2023/09/07 07:59:57;;;;;;;18.88;12.23;;;23.70;99.90;;;;;;5050116;28;20679;-74
2023/09/07 08:02:22;;;;;;;22.30;11.80;;;23.80;99.90;;;;;;5050319;28;20178;-74
2023/09/07 08:04:48;;;;;;;25.55;12.05;;;;;;;;;;5049632;28;20205;-74
2023/09/07 08:07:14;;;;;;;25.80;12.98;;;24.30;99.90;;;;;;5050436;28;20231;-74
2023/09/07 08:09:39;;;;;;;16.50;12.23;;;24.50;99.90;;;;;;5050306;28;20239;-73
2023/09/07 08:12:05;;;;;;;18.90;12.30;;;24.70;99.90;;;;;;5050295;28;20440;-74
2023/09/07 08:14:31;;;;;;;18.27;11.07;;;24.80;99.90;;;;;;5050280;28;20174;-73
2023/09/07 08:16:58;;;;;;;20.75;12.25;;;25.40;99.90;;;;;;5050112;28;20257;-73
2023/09/07 08:19:24;;;;;;;17.13;11.40;;;;;;;;;;5049929;28;20180;-74
2023/09/07 08:21:50;;;;;;;19.92;11.93;;;;;;;;;;5053028;28;20173;-74
2023/09/07 08:24:16;;;;;;;23.25;10.52;;;26.50;99.90;;;;;;5052522;28;20212;-74
2023/09/07 08:26:42;;;;;;;17.38;11.18;;;26.80;99.90;;;;;;5052332;28;20238;-74
2023/09/07 08:29:08;;;;;;;14.13;10.25;;;24.40;99.90;;;;;;5054072;28;20177;-74
2023/09/07 08:31:35;;;;;;;16.42;10.75;;;26.90;99.90;;;;;;5051727;28;20574;-74
2023/09/07 08:34:05;;;;;;;18.77;10.20;;;26.70;99.90;;;;;;5052376;28;20184;-74
2023/09/07 08:36:33;;;;;;;14.57;10.40;;;26.80;99.90;;;;;;5050716;28;20721;-74
2023/09/07 08:39:01;;;;;;;15.93;10.45;;;26.90;99.90;;;;;;5051930;28;20627;-74
2023/09/07 08:41:28;;;;;;;12.60;8.98;;;26.90;99.90;;;;;;5051948;28;20584;-74
2023/09/07 08:43:55;;;;;;;20.75;10.20;;;26.70;99.90;;;;;;5051812;28;20237;-74
2023/09/07 08:46:22;;;;;;;13.10;9.40;;;26.70;99.90;;;;;;5051899;28;20226;-74
2023/09/07 08:48:49;;;;;;;15.57;10.10;;;27.00;99.90;;;;;;5051823;28;20367;-74
2023/09/07 08:51:17;;;;;;;15.50;9.60;;;26.70;99.90;;;;;;5052102;28;20177;-74
2023/09/07 08:53:46;;;;;;;15.60;9.75;;;26.70;99.90;;;;;;5051896;28;20178;-74
2023/09/07 08:56:12;;;;;;;19.10;9.52;;;26.60;99.90;;;;;;5053662;28;20189;-74
2023/09/07 08:58:40;;;;;;;15.40;10.15;;;26.20;99.90;;;;;;5053109;28;20181;-73
2023/09/07 09:01:05;;;;;;;13.38;8.90;;;26.10;99.90;;;;;;5053176;28;20238;-74
2023/09/07 09:03:31;;;;;;;16.52;9.25;;;26.50;99.90;;;;;;5052711;28;20173;-74
2023/09/07 09:05:57;;;;;;;19.75;10.15;;;26.50;99.90;;;;;;5053475;28;20173;-74
2023/09/07 09:08:24;;;;;;;15.27;9.02;;;26.70;99.90;;;;;;5053591;28;20162;-74
2023/09/07 09:11:03;;;;;;;15.65;9.43;;;27.10;99.90;;;;;;5053458;28;20191;-74
2023/09/07 09:13:32;;;;;;;16.42;8.88;;;26.70;99.90;;;;;;5053247;28;20165;-74
2023/09/07 09:16:02;;;;;;;12.27;7.85;;;26.70;99.90;;;;;;5053315;28;20211;-74
2023/09/07 09:18:28;;;;;;;16.25;9.48;;;26.50;99.90;;;;;;5051962;28;20636;-74
2023/09/07 09:20:58;;;;;;;13.35;9.35;;;26.50;99.90;;;;;;5053328;28;20178;-74
2023/09/07 09:23:30;;;;;;;15.13;8.75;;;26.70;99.90;;;;;;5053092;28;20596;-74
2023/09/07 09:25:56;;;;;;;17.52;8.57;;;26.90;99.90;;;;;;5052725;28;20173;-74
2023/09/07 09:28:21;;;;;;;11.40;8.23;;;27.00;99.90;;;;;;5052886;28;20236;-74
2023/09/07 09:30:49;;;;;;;10.63;7.82;;;26.80;99.90;;;;;;5053142;28;20173;-74
2023/09/07 09:33:15;;;;;;;13.48;8.63;;;26.90;99.90;;;;;;5052318;28;20189;-74
2023/09/07 09:35:42;;;;;;;13.63;8.70;;;27.30;99.90;;;;;;5052972;28;20165;-75
2023/09/07 09:38:10;;;;;;;10.55;7.85;;;27.50;17.80;;;;;;5053009;28;20255;-74
2023/09/07 09:40:35;;;;;;;16.60;7.63;;;27.90;1.00;;;;;;5052656;28;20215;-74
2023/09/07 09:43:05;;;;;;;13.82;7.97;;;27.60;1.00;;;;;;5052599;28;20216;-74
2023/09/07 09:45:31;;;;;;;16.80;7.45;;;26.90;6.30;;;;;;5052651;28;20216;-74
2023/09/07 09:48:01;;;;;;;13.02;7.50;;;26.90;1.00;;;;;;5052766;28;20170;-74
2023/09/07 09:50:30;;;;;;;10.55;7.47;;;26.70;75.10;;;;;;5036239;28;20182;-74
2023/09/07 09:52:57;;;;;;;15.20;7.18;;;26.50;99.90;;;;;;5032805;28;20169;-73
2023/09/07 09:55:24;;;;;;;12.55;7.15;;;26.50;99.90;;;;;;5032515;28;20182;-74
2023/09/07 09:57:50;;;;;;;11.75;7.38;;;26.30;99.90;;;;;;5030953;28;20204;-74
2023/09/07 10:02:47;;;;;;;13.10;7.75;;;26.50;99.90;;;;;;5032364;28;20253;-74
2023/09/07 10:05:14;;;;;;;14.13;6.85;;;27.80;1.00;;;;;;5031521;28;20418;-74
2023/09/07 10:07:43;;;;;;;10.02;7.20;;;29.60;1.00;;;;;;5032209;28;20158;-74
2023/09/07 10:10:14;;;;;;;10.20;6.97;;;29.60;1.00;;;;;;5032562;28;20170;-74
2023/09/07 10:12:41;;;;;;;10.50;6.60;;;29.80;1.00;;;;;;5032470;28;20178;-74
2023/09/07 10:15:19;;;;;;;10.68;6.13;;;30.50;1.00;;;;;;5032420;28;20177;-74
2023/09/07 10:17:46;;;;;;;11.10;7.22;;;31.70;99.90;;;;;;5032140;28;20273;-74
2023/09/07 10:20:12;;;;;;;14.13;7.38;;;31.60;99.90;;;;;;5031994;28;20218;-74
2023/09/07 10:22:38;;;;;;;16.38;7.07;;;;;;;;;;5032334;28;20188;-74
2023/09/07 10:25:04;;;;;;;10.52;6.10;;;31.80;1.00;;;;;;5031828;28;20213;-74
2023/09/07 10:27:37;;;;;;;11.65;6.30;;;32.10;39.60;;;;;;5031923;28;20170;-75
2023/09/07 10:30:10;;;;;;;13.93;6.40;;;32.40;1.00;;;;;;5030542;28;20187;-75
2023/09/07 10:32:40;;;;;;;14.50;7.05;;;32.40;1.00;;;;;;5031939;28;20169;-75
2023/09/07 10:35:16;;;;;;;13.20;7.40;;;32.30;1.00;;;;;;5031659;28;20635;-75
2023/09/07 10:37:46;;;;;;;11.20;6.30;;;31.60;1.00;;;;;;5031627;28;20161;-75
2023/09/07 10:40:14;;;;;;;11.73;6.85;;;32.00;1.00;;;;;;5031802;28;20256;-75
2023/09/07 10:42:39;;;;;;;11.07;7.57;;;32.50;1.00;;;;;;5031432;28;20221;-75
2023/09/07 10:45:10;;;;;;;14.45;7.25;;;32.60;99.90;;;;;;5030722;28;20241;-75
2023/09/07 10:47:40;;;;;;;13.43;7.68;;;32.80;99.90;;;;;;5030382;28;20177;-75
2023/09/07 10:50:06;;;;;;;12.15;7.53;;;32.90;99.90;;;;;;5044837;28;20168;-75
2023/09/07 10:52:33;;;;;;;10.60;7.55;;;33.40;99.90;;;;;;5051604;28;20187;-75
2023/09/07 10:54:59;;;;;;;12.90;6.75;;;33.50;1.00;;;;;;5051368;28;20172;-75
2023/09/07 10:57:24;;;;;;;10.73;6.80;;;33.30;1.00;;;;;;5049717;28;20176;-75
2023/09/07 10:59:54;;;;;;;9.35;7.85;;;33.30;1.00;;;;;;5051309;28;20202;-75
2023/09/07 11:02:20;;;;;;;10.93;7.15;;;33.80;1.00;;;;;;5050834;28;20168;-75
2023/09/07 11:04:45;;;;;;;12.00;8.35;;;32.80;1.00;;;;;;5050603;28;20208;-74
2023/09/07 11:07:12;;;;;;;8.57;7.68;;;31.90;1.00;;;;;;5051115;28;20550;-74
2023/09/07 11:09:42;;;;;;;12.10;7.20;;;32.10;1.00;;;;;;5050365;28;20177;-75
2023/09/07 11:12:08;;;;;;;9.88;6.63;;;31.80;1.00;;;;;;5061251;28;20226;-75
2023/09/07 11:14:34;;;;;;;12.85;6.15;;;32.40;1.00;;;;;;5050739;28;20211;-75
2023/09/07 11:17:03;;;;;;;13.90;6.13;;;33.20;1.00;;;;;;5049534;28;20204;-74
2023/09/07 11:19:32;;;;;;;9.32;6.10;;;33.40;1.00;;;;;;5051104;28;20176;-75
2023/09/07 11:21:58;;;;;;;13.27;5.95;;;32.90;1.00;;;;;;5059376;28;20242;-75
2023/09/07 11:24:24;;;;;;;11.45;5.53;;;32.70;1.00;;;;;;5070579;28;20306;-75
2023/09/07 11:26:49;;;;;;;13.77;5.55;;;33.40;1.00;;;;;;5057398;28;20172;-75
2023/09/07 11:29:16;;;;;;;13.80;5.95;;;33.10;99.90;;;;;;5050861;28;20249;-75
2023/09/07 11:31:42;;;;;;;11.27;5.47;;;33.50;99.90;;;;;;5050757;28;20339;-75
2023/09/07 11:34:12;;;;;;;8.05;5.20;;;34.10;1.00;;;;;;5050866;28;20222;-75
2023/09/07 11:36:43;;;;;;;13.20;5.43;;;34.60;1.00;;;;;;5061054;28;20183;-74
2023/09/07 11:39:12;;;;;;;9.85;6.03;;;34.90;1.00;;;;;;5055005;28;20259;-74
2023/09/07 11:41:40;;;;;;;6.00;4.95;;;34.40;99.90;;;;;;5055923;28;20231;-75
2023/09/07 11:44:06;;;;;;;11.77;5.53;;;34.90;99.90;;;;;;5050604;28;20223;-75
2023/09/07 11:46:32;;;;;;;9.65;5.45;;;35.50;99.90;;;;;;5061321;28;20180;-74
2023/09/07 11:48:58;;;;;;;9.90;5.15;;;35.80;99.90;;;;;;5052433;28;20653;-75
2023/09/07 11:51:24;;;;;;;10.02;5.45;;;35.30;1.00;;;;;;5057553;28;20239;-74
2023/09/07 11:53:49;;;;;;;15.68;5.80;;;33.90;1.00;;;;;;5050507;28;20529;-74
2023/09/07 11:56:15;;;;;;;8.43;5.30;;;34.40;1.00;;;;;;5061761;28;20229;-74
2023/09/07 11:58:42;;;;;;;9.27;5.97;;;34.90;1.00;;;;;;5070261;28;20653;-75
2023/09/07 12:01:08;;;;;;;8.10;5.40;;;34.60;1.00;;;;;;5061110;28;20168;-75
2023/09/07 12:03:34;;;;;;;7.80;5.38;;;34.20;1.00;;;;;;5050320;28;20250;-75
2023/09/07 12:06:00;;;;;;;6.85;4.72;;;34.20;1.00;;;;;;5050572;28;20214;-75
2023/09/07 12:08:26;;;;;;;10.27;5.70;;;33.60;1.00;;;;;;5050324;28;20180;-74
2023/09/07 12:10:51;;;;;;;8.95;5.35;;;33.00;1.00;;;;;;5055755;28;20685;-74
2023/09/07 12:13:17;;;;;;;8.98;5.50;;;33.00;1.00;;;;;;5050376;28;20177;-74
2023/09/07 12:15:43;;;;;;;10.82;5.38;;;33.40;1.00;;;;;;5051176;28;20180;-73
2023/09/07 12:18:08;;;;;;;13.18;5.13;;;34.00;1.00;;;;;;5050311;28;20173;-74
2023/09/07 12:20:37;;;;;;;10.60;4.97;;;34.00;1.00;;;;;;5049100;28;20172;-74
2023/09/07 12:23:02;;;;;;;11.40;5.00;;;33.50;1.00;;;;;;5050254;28;20344;-73
2023/09/07 12:25:28;;;;;;;10.55;4.43;;;33.30;1.00;;;;;;5050270;28;20674;-73
2023/09/07 12:27:54;;;;;;;12.27;5.03;;;33.10;1.00;;;;;;5052226;28;20214;-72
2023/09/07 12:30:20;;;;;;;9.20;4.38;;;33.10;1.00;;;;;;5055873;28;20212;-73
2023/09/07 12:32:46;;;;;;;8.00;4.72;;;;;;;;;;5050531;28;20202;-74
2023/09/07 12:35:12;;;;;;;6.40;4.25;;;34.10;1.00;;;;;;5050100;28;20165;-74
2023/09/07 12:37:38;;;;;;;9.43;4.53;;;;;;;;;;5050015;28;20180;-74
2023/09/07 12:40:14;;;;;;;12.48;4.45;;;33.80;1.00;;;;;;5050212;28;20282;-74
2023/09/07 12:42:44;;;;;;;9.48;4.88;;;33.60;1.00;;;;;;5050629;28;20267;-73
2023/09/07 12:45:11;;;;;;;7.82;5.15;;;33.40;1.00;;;;;;5030040;28;20217;-73
2023/09/07 12:47:37;;;;;;;7.88;4.22;;;31.90;1.00;;;;;;5030063;28;20219;-74